Time;durP1;ratioP1;P1;durP2;ratioP2;P2;SDS_P1;SDS_P2;PMS_P1;PMS_P2;Temp;Humidity;BMP_temperature;BMP_pressure;BME280_temperature;BME280_humidity;BME280_pressure;Samples;Min_cycle;Max_cycle;Signal;HPM_P1;HPM_P2
2020/12/17 00:00:39;;;;;;;24.43;18.77;;;8.90;99.90;;;;;;5120072;27;20515;-77
2020/12/17 00:03:07;;;;;;;22.77;18.43;;;8.90;99.90;;;;;;5117644;27;20467;-75
2020/12/17 00:05:34;;;;;;;19.90;18.20;;;9.00;99.90;;;;;;5118171;27;20475;-75
2020/12/17 00:08:00;;;;;;;19.97;18.13;;;9.00;99.90;;;;;;5116579;27;20463;-74
2020/12/17 00:10:26;;;;;;;20.27;18.30;;;9.10;99.90;;;;;;5115594;27;20460;-75
2020/12/17 00:12:53;;;;;;;18.90;17.70;;;9.00;99.90;;;;;;5112667;27;20473;-72
2020/12/17 00:15:20;;;;;;;25.10;17.80;;;9.10;99.90;;;;;;5114174;27;20455;-76
2020/12/17 00:17:49;;;;;;;19.67;17.73;;;9.10;99.90;;;;;;5114990;27;20475;-75
2020/12/17 00:20:18;;;;;;;20.03;18.40;;;9.20;99.90;;;;;;5115841;27;20495;-74
2020/12/17 00:22:45;;;;;;;19.63;17.70;;;9.20;99.90;;;;;;5113546;27;20485;-74
2020/12/17 00:25:13;;;;;;;18.70;17.27;;;9.20;99.90;;;;;;5117658;27;20452;-74
2020/12/17 00:27:40;;;;;;;18.80;17.27;;;9.10;99.90;;;;;;5117253;27;20465;-72
2020/12/17 00:30:08;;;;;;;19.77;18.00;;;9.10;99.90;;;;;;5110374;27;20462;-74
2020/12/17 00:32:34;;;;;;;23.20;18.93;;;9.10;99.90;;;;;;5109473;27;20574;-74
2020/12/17 00:35:00;;;;;;;21.23;19.23;;;9.00;99.90;;;;;;5112169;27;20464;-73
2020/12/17 00:37:31;;;;;;;19.33;17.20;;;9.00;99.90;;;;;;5112726;27;21479;-72
2020/12/17 00:39:58;;;;;;;17.50;16.30;;;9.10;99.90;;;;;;5110907;27;21320;-75
2020/12/17 00:42:25;;;;;;;18.33;16.87;;;9.10;99.90;;;;;;5108425;27;20980;-77
2020/12/17 00:44:51;;;;;;;18.03;16.50;;;9.10;99.90;;;;;;5109664;27;20467;-73
2020/12/17 00:47:18;;;;;;;18.73;17.20;;;9.10;99.90;;;;;;5112372;27;20468;-75
2020/12/17 00:49:44;;;;;;;18.47;16.97;;;9.20;99.90;;;;;;5111452;27;20463;-73
2020/12/17 00:52:11;;;;;;;18.40;16.77;;;9.30;99.90;;;;;;5113378;27;20460;-76
2020/12/17 00:54:39;;;;;;;18.33;17.03;;;9.30;99.90;;;;;;5111886;27;20455;-74
2020/12/17 00:57:05;;;;;;;18.23;16.70;;;9.40;99.90;;;;;;5117231;27;21406;-72
2020/12/17 00:59:32;;;;;;;18.20;16.80;;;9.50;99.90;;;;;;5109954;27;20491;-73
2020/12/17 01:01:58;;;;;;;18.47;16.73;;;9.50;99.90;;;;;;5107607;27;20460;-74
2020/12/17 01:04:25;;;;;;;17.47;16.37;;;9.60;99.90;;;;;;5104658;27;20469;-76
2020/12/17 01:06:51;;;;;;;18.57;17.30;;;9.60;99.90;;;;;;5109045;27;21025;-74
2020/12/17 01:09:18;;;;;;;17.67;16.43;;;9.60;99.90;;;;;;5107339;27;20936;-74
2020/12/17 01:11:45;;;;;;;18.63;17.20;;;9.70;99.90;;;;;;5107146;27;20613;-73
2020/12/17 01:14:13;;;;;;;18.73;17.30;;;9.70;99.90;;;;;;5111499;27;20470;-73
2020/12/17 01:16:40;;;;;;;17.70;16.30;;;9.70;99.90;;;;;;5102985;28;20453;-75
2020/12/17 01:19:07;;;;;;;19.43;17.93;;;9.70;99.90;;;;;;5111726;27;20461;-75
2020/12/17 01:21:34;;;;;;;19.30;17.70;;;9.80;99.90;;;;;;5106855;27;20542;-76
2020/12/17 01:24:01;;;;;;;19.13;17.73;;;9.80;99.90;;;;;;5107071;27;21112;-73
2020/12/17 01:26:27;;;;;;;19.83;17.90;;;9.80;99.90;;;;;;5101594;28;20472;-73
2020/12/17 01:28:54;;;;;;;17.57;16.10;;;9.90;99.90;;;;;;5106850;27;20494;-75
2020/12/17 01:31:20;;;;;;;18.77;17.37;;;9.90;99.90;;;;;;5108186;28;20514;-73
2020/12/17 01:33:46;;;;;;;19.73;18.10;;;9.90;99.90;;;;;;5110195;28;20464;-74
2020/12/17 01:36:13;;;;;;;19.50;17.50;;;9.80;99.90;;;;;;5106128;28;20492;-72
2020/12/17 01:38:40;;;;;;;18.47;17.07;;;9.70;99.90;;;;;;5107556;28;20483;-75
2020/12/17 01:41:08;;;;;;;20.00;18.37;;;9.60;99.90;;;;;;5105634;28;20499;-75
2020/12/17 01:43:36;;;;;;;20.30;18.50;;;9.60;99.90;;;;;;5103932;28;20815;-76
2020/12/17 01:46:05;;;;;;;20.60;18.50;;;9.60;99.90;;;;;;5106282;28;20449;-74
2020/12/17 01:48:33;;;;;;;21.07;18.90;;;9.50;99.90;;;;;;5107916;28;20547;-74
2020/12/17 01:51:01;;;;;;;22.33;19.43;;;9.50;99.90;;;;;;5109395;28;20935;-75
2020/12/17 01:53:27;;;;;;;20.30;18.30;;;9.50;99.90;;;;;;5105378;28;20459;-74
2020/12/17 01:55:57;;;;;;;19.17;17.57;;;9.50;99.90;;;;;;5107012;28;22744;-74
2020/12/17 01:58:26;;;;;;;19.23;17.83;;;9.40;99.90;;;;;;5110658;28;20601;-74
2020/12/17 02:00:54;;;;;;;19.43;17.90;;;9.40;99.90;;;;;;5118860;28;20488;-77
2020/12/17 02:03:22;;;;;;;20.63;19.13;;;9.40;99.90;;;;;;5117108;28;20459;-74
2020/12/17 02:05:50;;;;;;;20.03;18.53;;;9.40;99.90;;;;;;5115198;28;20588;-74
2020/12/17 02:08:18;;;;;;;20.10;18.40;;;9.40;99.90;;;;;;5117064;28;20558;-75
2020/12/17 02:10:44;;;;;;;19.90;18.27;;;9.30;99.90;;;;;;5114390;27;20557;-73
2020/12/17 02:13:12;;;;;;;19.73;18.13;;;9.30;99.90;;;;;;5121703;27;20464;-74
2020/12/17 02:15:38;;;;;;;20.70;18.50;;;9.30;99.90;;;;;;5118779;27;21010;-73
2020/12/17 02:18:05;;;;;;;20.80;18.90;;;9.30;99.90;;;;;;5119796;27;20475;-75
2020/12/17 02:20:32;;;;;;;20.53;18.60;;;9.30;99.90;;;;;;5121017;27;20487;-73
2020/12/17 02:22:59;;;;;;;21.17;19.10;;;9.30;99.90;;;;;;5120321;27;20766;-76
2020/12/17 02:25:26;;;;;;;21.90;20.10;;;9.40;99.90;;;;;;5113702;27;20528;-76
2020/12/17 02:27:52;;;;;;;21.43;19.80;;;9.40;99.90;;;;;;5115135;27;20461;-74
2020/12/17 02:30:19;;;;;;;22.63;20.63;;;9.40;99.90;;;;;;5115427;27;20460;-75
2020/12/17 02:32:45;;;;;;;21.63;19.83;;;9.30;99.90;;;;;;5115800;27;20476;-74
2020/12/17 02:35:12;;;;;;;27.63;20.00;;;9.30;99.90;;;;;;5111031;27;20456;-74
2020/12/17 02:37:38;;;;;;;22.90;20.27;;;9.30;99.90;;;;;;5112499;27;21230;-73
2020/12/17 02:40:05;;;;;;;21.60;20.00;;;9.20;99.90;;;;;;5111476;27;20482;-73
2020/12/17 02:42:33;;;;;;;22.90;21.20;;;9.20;99.90;;;;;;5112578;27;20452;-76
2020/12/17 02:44:59;;;;;;;20.97;19.03;;;9.20;99.90;;;;;;5116509;27;20513;-76
2020/12/17 02:47:26;;;;;;;23.03;20.73;;;9.20;99.90;;;;;;5113491;27;20471;-76
2020/12/17 02:49:52;;;;;;;23.13;20.40;;;9.10;99.90;;;;;;5112166;27;20474;-75
2020/12/17 02:52:19;;;;;;;22.53;20.30;;;9.10;99.90;;;;;;5118127;27;20455;-76
2020/12/17 02:54:45;;;;;;;21.47;19.60;;;9.10;99.90;;;;;;5114238;27;20464;-75
2020/12/17 02:57:12;;;;;;;22.83;20.30;;;9.10;99.90;;;;;;5115803;27;20460;-76
2020/12/17 02:59:41;;;;;;;21.10;19.20;;;9.10;99.90;;;;;;5115928;27;20500;-73
2020/12/17 03:02:07;;;;;;;23.23;20.77;;;9.20;99.90;;;;;;5115813;27;20464;-74
2020/12/17 03:04:33;;;;;;;28.97;22.73;;;9.20;99.90;;;;;;5115154;27;20960;-74
2020/12/17 03:07:00;;;;;;;24.03;20.97;;;9.10;99.90;;;;;;5112704;27;20528;-74
2020/12/17 03:09:27;;;;;;;22.97;20.13;;;9.20;99.90;;;;;;5115108;27;20467;-77
2020/12/17 03:11:53;;;;;;;23.90;21.83;;;9.20;99.90;;;;;;5110642;27;20459;-76
2020/12/17 03:14:20;;;;;;;29.07;20.90;;;9.10;99.90;;;;;;5115319;27;20457;-73
2020/12/17 03:16:48;;;;;;;23.60;21.20;;;9.10;99.90;;;;;;5110236;27;20460;-76
2020/12/17 03:19:15;;;;;;;23.20;20.73;;;9.20;99.90;;;;;;5112169;27;20528;-73
2020/12/17 03:21:42;;;;;;;22.20;19.93;;;9.20;99.90;;;;;;5111701;27;21294;-75
2020/12/17 03:24:09;;;;;;;22.67;20.37;;;9.20;99.90;;;;;;5112265;27;21322;-74
2020/12/17 03:26:37;;;;;;;22.00;19.87;;;9.20;99.90;;;;;;5113374;27;20514;-74
2020/12/17 03:29:03;;;;;;;22.87;20.50;;;9.20;99.90;;;;;;5114341;27;20468;-74
2020/12/17 03:31:30;;;;;;;28.60;21.57;;;9.30;99.90;;;;;;5112569;27;20500;-72
2020/12/17 03:33:57;;;;;;;23.07;20.97;;;9.30;99.90;;;;;;5113532;27;20472;-76
2020/12/17 03:36:24;;;;;;;22.13;20.43;;;9.40;99.90;;;;;;5114710;27;20964;-73
2020/12/17 03:38:51;;;;;;;21.60;19.63;;;9.50;99.90;;;;;;5113462;27;20453;-75
2020/12/17 03:41:17;;;;;;;22.03;20.43;;;9.50;99.90;;;;;;5121031;27;20521;-75
2020/12/17 03:43:44;;;;;;;21.30;19.60;;;9.60;99.90;;;;;;5113972;27;20517;-75
2020/12/17 03:46:10;;;;;;;20.07;18.33;;;9.70;99.90;;;;;;5114648;27;20467;-74
2020/12/17 03:48:37;;;;;;;21.57;19.90;;;9.80;99.90;;;;;;5120309;27;20460;-75
2020/12/17 03:51:04;;;;;;;20.17;18.47;;;9.80;99.90;;;;;;5118562;27;20496;-73
2020/12/17 03:53:30;;;;;;;21.80;19.70;;;9.80;99.90;;;;;;5111989;27;20453;-74
2020/12/17 03:55:57;;;;;;;20.80;19.27;;;9.90;99.90;;;;;;5115374;27;20484;-74
2020/12/17 03:58:23;;;;;;;20.73;19.00;;;9.90;99.90;;;;;;5109934;27;20480;-74
2020/12/17 04:00:49;;;;;;;20.00;18.57;;;10.00;99.90;;;;;;5112454;27;20495;-74
2020/12/17 04:03:16;;;;;;;21.73;19.67;;;10.00;99.90;;;;;;5113439;27;20459;-74
2020/12/17 04:05:42;;;;;;;19.70;18.10;;;10.00;99.90;;;;;;5111207;27;20464;-74
2020/12/17 04:08:10;;;;;;;20.07;18.50;;;10.10;99.90;;;;;;5109852;27;21509;-75
2020/12/17 04:10:36;;;;;;;21.20;19.40;;;10.10;99.90;;;;;;5113279;27;20453;-73
2020/12/17 04:13:02;;;;;;;20.40;18.80;;;10.10;99.90;;;;;;5110907;27;20467;-76
2020/12/17 04:15:28;;;;;;;19.70;18.30;;;10.10;99.90;;;;;;5111009;27;20457;-76
2020/12/17 04:17:55;;;;;;;18.90;17.47;;;10.20;99.90;;;;;;5108080;27;20718;-73
2020/12/17 04:20:21;;;;;;;20.07;18.27;;;10.30;99.90;;;;;;5115284;27;20846;-76
2020/12/17 04:22:47;;;;;;;19.73;18.17;;;10.30;99.90;;;;;;5117892;27;20842;-74
2020/12/17 04:25:16;;;;;;;18.90;17.40;;;10.30;99.90;;;;;;5112298;27;22249;-74
2020/12/17 04:27:44;;;;;;;19.77;18.17;;;10.30;99.90;;;;;;5115062;27;20753;-75
2020/12/17 04:30:10;;;;;;;19.80;18.30;;;10.30;99.90;;;;;;5116164;27;20954;-74
2020/12/17 04:32:37;;;;;;;19.80;18.00;;;10.40;99.90;;;;;;5112478;27;20980;-74
2020/12/17 04:35:03;;;;;;;18.30;17.20;;;10.40;99.90;;;;;;5115325;27;20958;-75
2020/12/17 04:37:31;;;;;;;20.10;18.37;;;10.40;99.90;;;;;;5115164;27;20460;-76
2020/12/17 04:39:58;;;;;;;19.20;18.00;;;10.50;99.90;;;;;;5117955;27;20480;-74
2020/12/17 04:42:26;;;;;;;19.00;17.67;;;10.60;99.90;;;;;;5120837;27;20464;-76
2020/12/17 04:44:54;;;;;;;20.00;18.00;;;10.50;99.90;;;;;;5114978;27;20465;-73
2020/12/17 04:47:21;;;;;;;20.87;19.37;;;10.40;99.90;;;;;;5107698;27;20457;-73
2020/12/17 04:49:50;;;;;;;19.37;18.13;;;10.40;99.90;;;;;;5113999;27;20464;-75
2020/12/17 04:52:17;;;;;;;19.37;17.80;;;10.50;99.90;;;;;;5121079;27;20453;-74
2020/12/17 04:54:43;;;;;;;19.70;18.10;;;10.40;99.90;;;;;;5112221;27;20511;-77
2020/12/17 04:57:11;;;;;;;19.73;18.30;;;10.40;99.90;;;;;;5109210;27;20452;-75
2020/12/17 04:59:46;;;;;;;20.70;19.10;;;10.30;99.90;;;;;;5105337;27;20485;-74
2020/12/17 05:02:13;;;;;;;21.17;19.73;;;10.30;99.90;;;;;;5104120;28;20456;-76
2020/12/17 05:04:41;;;;;;;21.97;20.40;;;10.30;99.90;;;;;;5098452;28;20828;-75
2020/12/17 05:07:09;;;;;;;20.83;19.27;;;10.30;99.90;;;;;;5099739;28;20464;-75
2020/12/17 05:09:37;;;;;;;21.13;19.47;;;10.30;99.90;;;;;;5105783;28;20468;-77
2020/12/17 05:12:04;;;;;;;21.53;19.77;;;10.30;99.90;;;;;;5100465;28;20473;-76
2020/12/17 05:14:31;;;;;;;22.47;20.50;;;10.30;99.90;;;;;;5099456;28;20454;-75
2020/12/17 05:16:59;;;;;;;23.30;21.47;;;10.20;99.90;;;;;;5099236;28;20539;-77
2020/12/17 05:19:26;;;;;;;24.27;22.47;;;10.20;99.90;;;;;;5102617;28;20458;-77
2020/12/17 05:21:53;;;;;;;26.60;23.90;;;10.20;99.90;;;;;;5097172;28;20602;-77
2020/12/17 05:24:21;;;;;;;25.50;23.50;;;10.10;99.90;;;;;;5105355;28;20468;-74
2020/12/17 05:26:48;;;;;;;27.03;24.70;;;10.20;99.90;;;;;;5102673;28;20471;-73
2020/12/17 05:29:16;;;;;;;25.37;23.47;;;10.20;99.90;;;;;;5097766;28;20458;-73
2020/12/17 05:31:43;;;;;;;28.03;25.80;;;10.20;99.90;;;;;;5103142;28;20488;-76
2020/12/17 05:34:12;;;;;;;28.60;26.10;;;10.20;99.90;;;;;;5097223;28;20458;-76
2020/12/17 05:36:40;;;;;;;30.97;25.93;;;10.20;99.90;;;;;;5102633;28;20464;-76
2020/12/17 05:39:13;;;;;;;27.47;25.37;;;10.20;99.90;;;;;;5104837;28;20461;-76
2020/12/17 05:41:40;;;;;;;28.20;25.90;;;10.20;99.90;;;;;;5100722;28;20497;-75
2020/12/17 05:44:12;;;;;;;27.70;25.70;;;10.20;99.90;;;;;;5098675;28;20465;-73
2020/12/17 05:46:40;;;;;;;28.27;26.07;;;10.20;99.90;;;;;;5102937;28;20858;-75
2020/12/17 05:49:17;;;;;;;28.53;26.27;;;10.20;99.90;;;;;;5109841;28;21032;-76
2020/12/17 05:51:44;;;;;;;27.80;25.50;;;10.20;99.90;;;;;;5102107;28;20456;-74
2020/12/17 05:54:20;;;;;;;27.93;25.90;;;10.20;99.90;;;;;;5107803;28;20453;-75
2020/12/17 05:56:48;;;;;;;26.90;24.70;;;10.20;99.90;;;;;;5101949;28;20918;-76
2020/12/17 05:59:23;;;;;;;28.80;25.90;;;10.10;99.90;;;;;;5114315;27;20516;-75
2020/12/17 06:01:50;;;;;;;27.53;25.47;;;10.10;99.90;;;;;;5123203;27;20487;-75
2020/12/17 06:04:18;;;;;;;27.13;25.03;;;10.20;99.90;;;;;;5120994;27;20503;-76
2020/12/17 06:06:46;;;;;;;26.37;24.27;;;10.20;99.90;;;;;;5126246;27;20461;-74
2020/12/17 06:09:21;;;;;;;26.07;24.07;;;10.10;99.90;;;;;;5116855;27;20461;-77
2020/12/17 06:11:50;;;;;;;25.90;24.00;;;10.10;99.90;;;;;;5123202;27;20474;-77
2020/12/17 06:14:21;;;;;;;25.13;23.03;;;10.10;99.90;;;;;;5125919;27;20464;-76
2020/12/17 06:16:53;;;;;;;26.40;24.50;;;10.00;99.90;;;;;;5124088;27;20451;-76
2020/12/17 06:19:24;;;;;;;24.43;22.70;;;10.00;99.90;;;;;;5125639;27;20966;-74
2020/12/17 06:21:51;;;;;;;24.43;22.63;;;10.10;99.90;;;;;;5119549;27;20484;-75
2020/12/17 06:24:19;;;;;;;25.07;22.90;;;10.00;99.90;;;;;;5123190;27;20456;-76
2020/12/17 06:26:55;;;;;;;24.93;23.13;;;10.00;99.90;;;;;;5124238;27;20467;-75
2020/12/17 06:29:23;;;;;;;23.20;21.53;;;10.00;99.90;;;;;;5125027;27;20456;-76
2020/12/17 06:31:55;;;;;;;24.10;22.40;;;9.90;99.90;;;;;;5122587;27;20476;-76
2020/12/17 06:34:30;;;;;;;23.77;21.70;;;9.90;99.90;;;;;;5121523;27;20470;-77
2020/12/17 06:36:58;;;;;;;23.50;21.53;;;9.90;99.90;;;;;;5121505;27;20460;-76
2020/12/17 06:39:25;;;;;;;24.50;22.47;;;9.90;99.90;;;;;;5119727;27;20464;-76
2020/12/17 06:41:52;;;;;;;22.60;21.10;;;9.90;99.90;;;;;;5119360;27;20983;-76
2020/12/17 06:44:26;;;;;;;24.07;22.47;;;9.80;99.90;;;;;;5125729;27;20448;-76
2020/12/17 06:46:55;;;;;;;23.53;22.07;;;9.80;99.90;;;;;;5117066;27;20464;-75
2020/12/17 06:49:25;;;;;;;22.93;21.13;;;9.80;99.90;;;;;;5121563;27;20573;-75
2020/12/17 06:52:05;;;;;;;23.60;21.90;;;9.80;99.90;;;;;;5120032;27;20461;-76
2020/12/17 06:54:40;;;;;;;23.00;21.60;;;9.80;99.90;;;;;;5122487;27;20460;-75
2020/12/17 06:57:09;;;;;;;24.30;22.30;;;9.70;99.90;;;;;;5123637;27;20469;-75
2020/12/17 06:59:36;;;;;;;23.60;21.90;;;9.70;99.90;;;;;;5120588;27;20485;-77
2020/12/17 07:02:04;;;;;;;23.10;21.63;;;9.70;99.90;;;;;;5121436;27;21047;-76
2020/12/17 07:04:41;;;;;;;23.90;22.17;;;9.60;99.90;;;;;;5119523;27;20574;-76
2020/12/17 07:07:19;;;;;;;23.20;21.53;;;9.60;99.90;;;;;;5120757;27;20482;-75
2020/12/17 07:09:47;;;;;;;23.70;21.50;;;9.60;99.90;;;;;;5114694;27;20540;-75
2020/12/17 07:12:43;;;;;;;22.67;21.10;;;9.60;99.90;;;;;;5123347;27;20463;-75
2020/12/17 07:15:35;;;;;;;21.73;20.43;;;9.50;99.90;;;;;;5121707;27;20963;-77
2020/12/17 07:18:23;;;;;;;23.63;21.87;;;9.50;99.90;;;;;;5124689;27;20486;-76
2020/12/17 07:21:03;;;;;;;22.07;20.57;;;9.50;99.90;;;;;;5121475;27;20488;-75
2020/12/17 07:23:32;;;;;;;22.53;20.83;;;9.50;99.90;;;;;;5112969;27;20962;-76
2020/12/17 07:26:08;;;;;;;22.30;20.90;;;9.50;99.90;;;;;;5121186;27;20467;-75
2020/12/17 07:28:36;;;;;;;22.40;20.60;;;9.50;99.90;;;;;;5119510;27;21027;-75
2020/12/17 07:31:03;;;;;;;23.40;21.63;;;9.50;99.90;;;;;;5121645;27;20876;-75
2020/12/17 07:33:44;;;;;;;21.90;20.50;;;9.50;99.90;;;;;;5118211;27;20464;-75
2020/12/17 07:36:12;;;;;;;21.27;19.97;;;9.50;99.90;;;;;;5118369;27;20802;-75
2020/12/17 07:38:40;;;;;;;22.00;20.50;;;9.50;99.90;;;;;;5122156;27;20468;-75
2020/12/17 07:41:21;;;;;;;22.40;20.90;;;9.40;99.90;;;;;;5122300;27;20496;-75
2020/12/17 07:43:49;;;;;;;21.00;19.60;;;9.40;99.90;;;;;;5124564;27;20456;-75
2020/12/17 07:46:34;;;;;;;22.30;21.00;;;9.40;99.90;;;;;;5121361;27;20452;-75
2020/12/17 07:49:02;;;;;;;22.27;20.87;;;9.30;99.90;;;;;;5118634;27;20959;-75
2020/12/17 07:51:33;;;;;;;21.37;19.90;;;9.20;99.90;;;;;;5122088;27;20461;-75
2020/12/17 07:54:04;;;;;;;21.87;20.47;;;9.20;99.90;;;;;;5122459;27;20472;-76
2020/12/17 07:56:31;;;;;;;21.93;20.63;;;9.20;99.90;;;;;;5124874;27;20505;-75
2020/12/17 07:59:02;;;;;;;21.50;20.30;;;9.20;99.90;;;;;;5122439;27;20483;-74
2020/12/17 08:01:28;;;;;;;21.50;20.20;;;9.10;99.90;;;;;;5121739;27;21072;-74
2020/12/17 08:03:54;;;;;;;21.33;20.03;;;9.00;99.90;;;;;;5117092;27;20464;-75
2020/12/17 08:06:22;;;;;;;20.53;19.33;;;9.00;99.90;;;;;;5117840;27;21049;-75
2020/12/17 08:08:53;;;;;;;21.07;19.77;;;8.90;99.90;;;;;;5115778;27;20474;-76
2020/12/17 08:11:19;;;;;;;21.70;20.30;;;8.90;99.90;;;;;;5121021;27;20520;-76
2020/12/17 08:13:46;;;;;;;22.90;21.40;;;8.80;99.90;;;;;;5122013;27;20467;-76
2020/12/17 08:16:13;;;;;;;23.37;21.77;;;8.80;99.90;;;;;;5122866;27;20484;-76
2020/12/17 08:18:39;;;;;;;28.20;25.60;;;8.80;99.90;;;;;;5117541;27;20474;-76
2020/12/17 08:21:08;;;;;;;24.73;22.93;;;8.80;99.90;;;;;;5114193;27;20480;-78
2020/12/17 08:23:38;;;;;;;25.30;23.40;;;8.80;99.90;;;;;;5115292;27;20463;-76
2020/12/17 08:26:06;;;;;;;23.87;21.77;;;8.80;99.90;;;;;;5121510;27;20460;-77
2020/12/17 08:28:35;;;;;;;21.30;19.80;;;8.90;99.90;;;;;;5116734;27;20465;-75
2020/12/17 08:31:03;;;;;;;24.07;22.27;;;8.90;99.90;;;;;;5118415;27;20464;-77
2020/12/17 08:33:30;;;;;;;24.07;22.07;;;9.00;99.90;;;;;;5117012;27;20513;-78
2020/12/17 08:36:05;;;;;;;25.13;23.10;;;8.90;99.90;;;;;;5114598;27;20484;-76
2020/12/17 08:38:32;;;;;;;20.93;19.63;;;9.00;99.90;;;;;;5114710;27;20463;-79
2020/12/17 08:41:00;;;;;;;21.80;20.30;;;9.00;99.90;;;;;;5122830;27;20493;-78
2020/12/17 08:43:29;;;;;;;19.70;18.50;;;9.10;99.90;;;;;;5122614;27;20448;-78
2020/12/17 08:45:57;;;;;;;20.87;19.37;;;9.10;99.90;;;;;;5116500;27;20463;-77
2020/12/17 08:48:24;;;;;;;19.97;18.77;;;9.10;99.90;;;;;;5119163;27;20518;-78
2020/12/17 08:50:53;;;;;;;21.13;19.80;;;9.10;99.90;;;;;;5115393;27;20512;-76
2020/12/17 08:53:22;;;;;;;19.83;18.63;;;9.10;99.90;;;;;;5111848;27;20832;-76
2020/12/17 08:56:04;;;;;;;19.50;18.20;;;9.20;99.90;;;;;;5121373;27;20472;-80
2020/12/17 08:58:31;;;;;;;18.80;17.60;;;9.20;99.90;;;;;;5120475;27;20488;-76
2020/12/17 09:00:57;;;;;;;17.90;16.90;;;9.30;99.90;;;;;;5119256;27;21003;-79
2020/12/17 09:03:25;;;;;;;19.03;17.70;;;9.40;99.90;;;;;;5118365;27;20510;-79
2020/12/17 09:06:14;;;;;;;17.87;16.80;;;9.40;99.90;;;;;;5114071;27;20815;-77
2020/12/17 09:08:41;;;;;;;18.20;17.00;;;9.40;99.90;;;;;;5115943;27;20982;-81
2020/12/17 09:11:32;;;;;;;18.17;17.00;;;9.50;99.90;;;;;;5118208;27;20465;-77
2020/12/17 09:14:03;;;;;;;18.17;16.90;;;9.60;99.90;;;;;;5115327;27;20456;-77
2020/12/17 09:16:31;;;;;;;17.43;16.43;;;9.70;99.90;;;;;;5117730;27;20489;-76
2020/12/17 09:18:59;;;;;;;16.87;15.80;;;9.70;99.90;;;;;;5116494;27;20472;-76
2020/12/17 09:21:27;;;;;;;16.57;15.33;;;9.80;99.90;;;;;;5112222;28;20508;-77
2020/12/17 09:23:55;;;;;;;16.43;15.53;;;9.90;99.90;;;;;;5114578;27;20489;-76
2020/12/17 09:26:22;;;;;;;16.10;15.20;;;10.00;99.90;;;;;;5113039;28;20492;-76
2020/12/17 09:28:53;;;;;;;16.47;15.53;;;10.00;99.90;;;;;;5114798;27;20963;-76
2020/12/17 09:31:25;;;;;;;16.50;15.47;;;10.00;99.90;;;;;;5122025;27;20483;-79
2020/12/17 09:34:02;;;;;;;16.57;15.67;;;10.10;99.90;;;;;;5120477;27;20457;-76
2020/12/17 09:36:29;;;;;;;17.57;15.77;;;10.10;99.90;;;;;;5115752;28;20514;-76
2020/12/17 09:38:59;;;;;;;16.33;15.53;;;10.10;99.90;;;;;;5112147;28;20453;-78
2020/12/17 09:41:27;;;;;;;16.53;15.53;;;10.20;99.90;;;;;;5117302;28;20849;-76
2020/12/17 09:43:53;;;;;;;16.13;15.13;;;10.20;99.90;;;;;;5115846;28;20488;-76
2020/12/17 09:46:20;;;;;;;15.87;14.87;;;10.30;99.90;;;;;;5116073;28;20464;-78
2020/12/17 09:48:46;;;;;;;15.20;14.40;;;10.30;99.90;;;;;;5117650;28;20457;-77
2020/12/17 09:51:12;;;;;;;17.50;16.50;;;10.40;99.90;;;;;;5113244;28;20475;-80
2020/12/17 09:53:43;;;;;;;15.70;14.90;;;10.40;99.90;;;;;;5117817;28;20514;-77
2020/12/17 09:56:10;;;;;;;16.03;15.17;;;10.40;99.90;;;;;;5114432;28;20457;-76
2020/12/17 09:58:38;;;;;;;16.33;15.43;;;10.40;99.90;;;;;;5117923;28;20489;-76
2020/12/17 10:01:05;;;;;;;15.67;14.87;;;10.50;99.90;;;;;;5114703;28;20520;-76
2020/12/17 10:03:31;;;;;;;16.20;15.27;;;10.60;99.90;;;;;;5117150;28;20456;-76
2020/12/17 10:05:58;;;;;;;16.03;15.23;;;10.50;99.90;;;;;;5118202;28;20459;-76
2020/12/17 10:08:25;;;;;;;16.50;15.43;;;10.50;99.90;;;;;;5114395;28;20463;-76
2020/12/17 10:10:52;;;;;;;16.03;15.17;;;10.50;99.90;;;;;;5118691;28;21087;-75
2020/12/17 10:13:19;;;;;;;15.63;14.87;;;10.40;99.90;;;;;;5119272;28;20461;-75
2020/12/17 10:15:45;;;;;;;16.00;14.90;;;10.50;99.90;;;;;;5115392;28;20460;-79
2020/12/17 10:18:11;;;;;;;15.93;14.87;;;10.60;99.90;;;;;;5115622;28;20460;-77
2020/12/17 10:20:38;;;;;;;15.70;14.80;;;10.60;99.90;;;;;;5116515;28;20553;-77
2020/12/17 10:23:04;;;;;;;15.97;14.87;;;10.70;99.90;;;;;;5118794;28;20558;-75
2020/12/17 10:25:31;;;;;;;14.90;14.00;;;10.80;99.90;;;;;;5116102;28;20464;-75
2020/12/17 10:27:59;;;;;;;15.60;14.50;;;10.70;99.90;;;;;;5120447;28;20464;-78
2020/12/17 10:30:26;;;;;;;15.07;13.73;;;10.70;99.90;;;;;;5112133;28;20554;-75
2020/12/17 10:32:52;;;;;;;15.03;14.03;;;10.60;99.90;;;;;;5122539;27;20480;-77
2020/12/17 10:35:19;;;;;;;14.43;13.73;;;10.80;99.90;;;;;;5124482;27;20459;-77
2020/12/17 10:37:45;;;;;;;15.47;14.57;;;10.90;99.90;;;;;;5118273;27;20552;-78
2020/12/17 10:40:12;;;;;;;14.43;13.73;;;11.00;99.90;;;;;;5120809;27;20990;-78
2020/12/17 10:42:40;;;;;;;14.30;13.20;;;10.80;99.90;;;;;;5121307;27;20459;-74
2020/12/17 10:45:08;;;;;;;15.00;14.00;;;10.80;99.90;;;;;;5123199;27;20803;-77
2020/12/17 10:47:35;;;;;;;14.90;13.80;;;10.90;99.90;;;;;;5124073;27;20480;-75
2020/12/17 10:50:02;;;;;;;14.90;13.90;;;10.90;99.90;;;;;;5125393;27;20467;-75
2020/12/17 10:52:28;;;;;;;14.90;13.97;;;10.90;99.90;;;;;;5120383;27;20867;-78
2020/12/17 10:54:54;;;;;;;14.73;13.97;;;11.00;99.90;;;;;;5121423;27;20464;-78
2020/12/17 10:57:21;;;;;;;14.73;13.60;;;10.80;99.90;;;;;;5122899;27;20469;-75
2020/12/17 10:59:47;;;;;;;14.57;13.87;;;10.90;99.90;;;;;;5125083;27;20491;-76
2020/12/17 11:02:15;;;;;;;15.20;13.97;;;11.00;99.90;;;;;;5116740;27;20488;-75
2020/12/17 11:04:43;;;;;;;14.73;13.93;;;11.10;99.90;;;;;;5118437;27;20616;-75
2020/12/17 11:07:10;;;;;;;15.07;14.17;;;11.10;99.90;;;;;;5122733;27;20861;-75
2020/12/17 11:09:37;;;;;;;14.93;13.80;;;11.10;99.90;;;;;;5117718;27;20461;-76
2020/12/17 11:12:04;;;;;;;15.77;14.77;;;11.00;99.90;;;;;;5123990;27;20794;-75
2020/12/17 11:14:31;;;;;;;14.87;13.87;;;10.90;99.90;;;;;;5121979;27;20524;-75
2020/12/17 11:17:03;;;;;;;14.10;13.40;;;10.90;99.90;;;;;;5118718;27;20510;-74
2020/12/17 11:19:31;;;;;;;14.37;13.57;;;11.00;99.90;;;;;;5121858;27;20460;-75
2020/12/17 11:22:01;;;;;;;14.57;13.77;;;10.90;99.90;;;;;;5122466;27;20489;-76
2020/12/17 11:24:29;;;;;;;15.03;14.13;;;11.00;99.90;;;;;;5123903;27;20459;-75
2020/12/17 11:26:56;;;;;;;14.90;14.10;;;11.00;99.90;;;;;;5118195;27;20509;-76
2020/12/17 11:29:23;;;;;;;15.37;14.47;;;11.10;99.90;;;;;;5118333;27;20537;-75
2020/12/17 11:31:50;;;;;;;15.37;14.47;;;11.20;99.90;;;;;;5125615;27;20484;-76
2020/12/17 11:34:16;;;;;;;14.20;13.27;;;11.30;99.90;;;;;;5119656;27;20474;-75
2020/12/17 11:36:44;;;;;;;15.30;14.13;;;11.30;99.90;;;;;;5117355;27;20503;-77
2020/12/17 11:39:11;;;;;;;15.33;14.43;;;11.10;99.90;;;;;;5119705;27;20453;-75
2020/12/17 11:41:38;;;;;;;15.00;14.20;;;11.20;99.90;;;;;;5118941;27;20488;-76
2020/12/17 11:44:05;;;;;;;14.87;13.97;;;11.20;99.90;;;;;;5121347;27;20456;-75
2020/12/17 11:46:32;;;;;;;14.90;13.80;;;11.20;99.90;;;;;;5117064;27;20544;-75
2020/12/17 11:48:59;;;;;;;14.47;13.50;;;11.30;99.90;;;;;;5119504;27;20987;-76
2020/12/17 11:51:25;;;;;;;15.73;14.83;;;11.30;99.90;;;;;;5124253;27;20460;-75
2020/12/17 11:53:52;;;;;;;15.03;14.23;;;11.00;99.90;;;;;;5116437;27;20456;-74
2020/12/17 11:56:18;;;;;;;15.80;14.60;;;10.90;99.90;;;;;;5115216;27;20457;-75
2020/12/17 11:58:45;;;;;;;14.77;13.87;;;10.90;99.90;;;;;;5119359;27;20483;-74
2020/12/17 12:01:11;;;;;;;15.73;14.17;;;10.70;99.90;;;;;;5123958;27;20569;-74
2020/12/17 12:03:38;;;;;;;15.00;13.80;;;10.60;99.90;;;;;;5118037;27;20517;-74
2020/12/17 12:06:04;;;;;;;14.97;14.17;;;10.50;99.90;;;;;;5118190;27;20463;-75
2020/12/17 12:08:30;;;;;;;14.40;13.43;;;10.40;99.90;;;;;;5116013;27;20457;-74
2020/12/17 12:10:58;;;;;;;15.23;14.33;;;10.30;99.90;;;;;;5115039;27;20464;-74
2020/12/17 12:13:24;;;;;;;14.30;13.50;;;10.30;99.90;;;;;;5116715;27;20464;-74
2020/12/17 12:15:51;;;;;;;13.93;13.03;;;10.20;99.90;;;;;;5119451;27;20460;-75
2020/12/17 12:18:18;;;;;;;14.20;13.30;;;10.20;99.90;;;;;;5114988;27;20457;-77
2020/12/17 12:20:45;;;;;;;14.37;13.40;;;10.20;99.90;;;;;;5114253;27;21142;-74
2020/12/17 12:23:15;;;;;;;14.20;13.50;;;10.10;99.90;;;;;;5111948;27;20977;-74
2020/12/17 12:25:42;;;;;;;14.40;13.50;;;10.20;99.90;;;;;;5117100;27;20659;-75
2020/12/17 12:28:10;;;;;;;15.10;13.50;;;10.80;99.90;;;;;;5121541;27;20467;-75
2020/12/17 12:30:36;;;;;;;14.40;13.60;;;10.80;99.90;;;;;;5113791;27;20464;-74
2020/12/17 12:33:03;;;;;;;13.70;12.90;;;10.60;99.90;;;;;;5116860;27;20501;-76
2020/12/17 12:35:29;;;;;;;15.70;14.43;;;10.40;99.90;;;;;;5116871;27;20537;-74
2020/12/17 12:37:55;;;;;;;14.13;13.37;;;10.30;99.90;;;;;;5112862;27;20811;-75